Blue Grotto — WDE6956 — position and weather

sailwx.info

Track history (hours):
 
Tides and Currents Weather Stations Pressure Air Temp Water Temp Dewpoint Dewpoint Depression Visibility Wind Speed Wind Dir Waves Ship Positions

Blue Grotto

Owner: Waterwood LLC, Newport, RI. More information available from US FCC via Universal Licensing System and Coast Guard Vessel Documentation Center.

Last reported at 2017-Jan-19 21:25 UTC. Time now 2017-Jan-24 07:10 UTC.
Position N 26°04' W 080°08'.

Length 19 m.

Type: Pleasure craft. MMSI: 367387040.

Date/timePositionNaut miles runAvg speedWind from/ knotsBaromVisibWave heightAir tempDewpointWater temp
2017-Jan-19 21:25N 26°04' W 080°08'4 4.3
2017-Jan-19 20:26N 25°59' W 080°07'5 5.8
2017-Jan-19 19:33N 25°54' W 080°08'0 0.2
2017-Jan-19 18:31N 25°54' W 080°08'0 0.0
2017-Jan-19 17:31N 25°54' W 080°08'2 1.8
2017-Jan-19 16:31N 25°55' W 080°06'8 7.5
2017-Jan-19 15:30N 26°03' W 080°06'2 0.0
2017-Jan-17 18:31N 26°04' W 080°08'4 4.2
2017-Jan-17 17:31N 26°06' W 080°04'2 2.2
2017-Jan-17 16:30N 26°06' W 080°07'  
Track history (hours):
 
Tides and Currents Weather Stations Pressure Air Temp Water Temp Dewpoint Dewpoint Depression Visibility Wind Speed Wind Dir Waves Ship Positions

Blue Grotto

Owner: Waterwood LLC, Newport, RI. More information available from US FCC via Universal Licensing System and Coast Guard Vessel Documentation Center.

Last reported at 2017-Jan-19 21:25 UTC. Time now 2017-Jan-24 07:10 UTC.
Position N 26°04' W 080°08'.

Length 19 m.

Type: Pleasure craft. MMSI: 367387040.

Date/timePositionNaut miles runAvg speedWind from/ knotsBaromVisibWave heightAir tempDewpointWater temp
2017-Jan-19 21:25N 26°04' W 080°08'4 4.3
2017-Jan-19 20:26N 25°59' W 080°07'5 5.8
2017-Jan-19 19:33N 25°54' W 080°08'0 0.2
2017-Jan-19 18:31N 25°54' W 080°08'0 0.0
2017-Jan-19 17:31N 25°54' W 080°08'2 1.8
2017-Jan-19 16:31N 25°55' W 080°06'8 7.5
2017-Jan-19 15:30N 26°03' W 080°06'2 0.0
2017-Jan-17 18:31N 26°04' W 080°08'4 4.2
2017-Jan-17 17:31N 26°06' W 080°04'2 2.2
2017-Jan-17 16:30N 26°06' W 080°07'  

Dump ship's entire track history